Time;durP1;ratioP1;P1;durP2;ratioP2;P2;SDS_P1;SDS_P2;PMS_P1;PMS_P2;Temp;Humidity;BMP_temperature;BMP_pressure;BME280_temperature;BME280_humidity;BME280_pressure;Samples;Min_cycle;Max_cycle;Signal;HPM_P1;HPM_P2
2023/01/12 00:01:53;;;;;;;10.10;7.15;;;;;;;19.36;44.74;101455.28;5033077;28;20052;-48
2023/01/12 00:04:20;;;;;;;9.30;7.60;;;;;;;19.35;44.55;101445.50;5033531;28;20050;-47
2023/01/12 00:06:48;;;;;;;9.77;6.80;;;;;;;19.34;44.71;101439.28;5033399;28;20041;-48
2023/01/12 00:09:15;;;;;;;11.13;7.50;;;;;;;19.34;44.61;101439.28;5033451;28;20049;-51
2023/01/12 00:11:42;;;;;;;10.82;7.43;;;;;;;19.35;44.83;101450.88;5033255;28;20048;-51
2023/01/12 00:14:10;;;;;;;10.35;6.25;;;;;;;19.34;44.55;101462.59;5033292;28;20057;-49
2023/01/12 00:16:37;;;;;;;9.57;7.07;;;;;;;19.33;44.86;101460.91;5033463;28;20392;-47
2023/01/12 00:19:10;;;;;;;9.82;6.78;;;;;;;19.34;44.77;101462.59;5033690;28;20057;-48
2023/01/12 00:21:55;;;;;;;8.00;7.00;;;;;;;19.34;44.49;101465.28;5033356;28;20041;-48
2023/01/12 00:24:26;;;;;;;8.50;6.70;;;;;;;19.33;44.60;101475.16;5033439;28;20112;-48
2023/01/12 00:26:55;;;;;;;11.40;6.65;;;;;;;19.32;44.78;101457.31;5033487;28;20402;-48
2023/01/12 00:29:24;;;;;;;10.73;6.80;;;;;;;19.32;44.84;101473.44;5033434;28;20049;-49
2023/01/12 00:31:52;;;;;;;11.75;7.18;;;;;;;19.32;44.85;101494.91;5033284;28;20049;-47
2023/01/12 00:34:20;;;;;;;10.05;6.68;;;;;;;19.31;44.77;101498.56;5033381;28;20057;-48
2023/01/12 00:36:48;;;;;;;8.32;6.20;;;;;;;19.32;44.93;101496.75;5033266;28;20057;-48
2023/01/12 00:39:16;;;;;;;9.55;6.20;;;;;;;19.32;44.89;101518.22;5032403;28;20480;-54
2023/01/12 00:47:16;;;;;;;7.85;6.43;;;;;;;19.31;45.21;101575.59;5033075;28;20498;-53
2023/01/12 00:49:44;;;;;;;9.23;6.07;;;;;;;19.32;45.17;101582.66;5033483;28;20068;-54
2023/01/12 00:52:15;;;;;;;11.07;6.30;;;;;;;19.30;45.18;101582.78;5033238;28;20049;-54
2023/01/12 00:54:56;;;;;;;8.05;6.40;;;;;;;19.31;45.24;101580.94;5036815;28;20045;-54
2023/01/12 00:57:24;;;;;;;9.07;6.22;;;;;;;19.30;45.35;101588.16;5036610;28;20072;-54
2023/01/12 00:59:53;;;;;;;9.38;6.38;;;;;;;19.30;45.23;101593.53;5037015;28;20405;-55
2023/01/12 01:02:22;;;;;;;9.23;5.78;;;;;;;19.30;45.23;101595.34;5036698;28;20476;-54
2023/01/12 01:04:50;;;;;;;9.45;6.15;;;;;;;19.29;45.05;101601.69;5036655;28;20045;-53
2023/01/12 01:07:17;;;;;;;7.57;5.85;;;;;;;19.29;45.07;101607.06;5036562;28;20050;-52
2023/01/12 01:09:44;;;;;;;7.53;6.07;;;;;;;19.30;45.32;101608.78;5036842;28;20046;-48
2023/01/12 01:12:12;;;;;;;8.70;6.70;;;;;;;19.29;45.25;101621.34;5036558;28;20052;-49
2023/01/12 01:14:39;;;;;;;7.47;5.72;;;;;;;19.30;45.11;101627.56;5036587;28;20056;-47
2023/01/12 01:17:06;;;;;;;9.85;6.28;;;;;;;19.27;45.09;101632.19;5036860;28;20050;-48
2023/01/12 01:19:34;;;;;;;9.00;6.43;;;;;;;19.26;45.13;101640.34;5036585;28;20053;-52
2023/01/12 01:22:01;;;;;;;8.00;5.50;;;;;;;19.27;44.86;101640.22;5036269;28;20041;-54
2023/01/12 01:24:28;;;;;;;9.20;6.22;;;;;;;19.27;45.01;101625.94;5036137;28;20041;-55
2023/01/12 01:26:56;;;;;;;7.00;5.88;;;;;;;19.26;45.09;101625.09;5036194;28;20049;-52
2023/01/12 01:29:23;;;;;;;7.07;5.72;;;;;;;19.27;45.09;101618.75;5036442;28;20045;-51
2023/01/12 01:31:53;;;;;;;8.95;6.35;;;;;;;19.26;45.08;101609.00;5036198;28;20045;-52
2023/01/12 01:34:20;;;;;;;7.78;5.40;;;;;;;19.25;44.82;101601.91;5036561;28;20052;-54
2023/01/12 01:36:47;;;;;;;8.20;5.90;;;;;;;19.25;45.00;101591.19;5036036;28;20053;-52
2023/01/12 01:39:14;;;;;;;8.02;5.90;;;;;;;19.26;45.00;101597.41;5036385;28;20046;-52
2023/01/12 01:41:42;;;;;;;7.45;5.95;;;;;;;19.25;44.85;101606.44;5035601;28;20053;-52
2023/01/12 01:44:28;;;;;;;10.57;6.28;;;;;;;19.26;44.96;101606.31;5036012;28;20050;-51
2023/01/12 01:46:55;;;;;;;8.00;6.47;;;;;;;19.26;45.05;101611.69;5036419;28;20045;-55
2023/01/12 01:49:28;;;;;;;9.35;5.50;;;;;;;19.25;44.96;101625.22;5035968;28;20045;-55
2023/01/12 01:52:03;;;;;;;8.18;5.60;;;;;;;19.26;45.00;101624.25;5035820;28;20048;-54
2023/01/12 01:54:38;;;;;;;7.68;6.20;;;;;;;19.26;44.91;101634.97;5035624;28;20053;-51
2023/01/12 01:57:08;;;;;;;6.93;5.22;;;;;;;19.26;45.08;101625.09;5035568;28;20050;-53
2023/01/12 01:59:39;;;;;;;8.05;5.43;;;;;;;19.26;45.05;101621.56;5035910;28;20045;-51
2023/01/12 02:02:06;;;;;;;7.15;5.40;;;;;;;19.26;44.93;101624.25;5035499;28;20038;-51
2023/01/12 02:04:35;;;;;;;5.75;5.00;;;;;;;19.26;45.04;101637.66;5035562;28;20411;-55
2023/01/12 02:07:05;;;;;;;7.35;5.60;;;;;;;19.25;45.15;101644.88;5035108;28;20052;-53
2023/01/12 02:09:33;;;;;;;8.80;5.95;;;;;;;19.25;45.16;101631.44;5035250;28;20052;-48
2023/01/12 02:18:22;;;;;;;6.82;5.18;;;;;;;19.23;45.06;101617.25;5035348;28;20042;-53
2023/01/12 02:21:10;;;;;;;6.80;5.32;;;;;;;19.23;45.05;101603.84;5053230;28;20450;-51
2023/01/12 02:24:15;;;;;;;7.28;6.00;;;;;;;19.24;45.01;101610.06;5053029;28;20060;-55
2023/01/12 02:27:11;;;;;;;7.80;5.80;;;;;;;19.23;45.25;101606.53;5051610;28;20045;-52
2023/01/12 02:29:51;;;;;;;10.50;6.20;;;;;;;19.23;45.23;101619.94;5053128;28;20080;-49
2023/01/12 02:32:31;;;;;;;7.47;5.32;;;;;;;19.23;45.18;101630.69;5052880;28;20055;-48
2023/01/12 02:34:58;;;;;;;8.18;5.43;;;;;;;19.23;45.26;101628.00;5052705;28;20159;-49
2023/01/12 02:37:31;;;;;;;8.40;5.57;;;;;;;19.22;45.19;101637.03;5052651;28;20060;-48
2023/01/12 02:40:04;;;;;;;7.63;5.47;;;;;;;19.22;45.18;101630.81;5052734;28;20541;-49
2023/01/12 02:42:40;;;;;;;5.82;5.22;;;;;;;19.22;45.24;101633.50;5052203;28;20045;-48
2023/01/12 02:45:44;;;;;;;7.63;5.63;;;;;;;19.21;45.13;101634.47;5052678;28;20056;-48
2023/01/12 02:48:26;;;;;;;7.65;5.25;;;;;;;19.21;45.16;101629.94;5052765;28;20080;-52
2023/01/12 02:50:58;;;;;;;7.32;5.57;;;;;;;19.21;45.21;101621.03;5052454;28;20049;-53
2023/01/12 02:53:49;;;;;;;7.63;5.40;;;;;;;19.20;45.13;101604.09;5035762;28;20045;-51
2023/01/12 02:56:23;;;;;;;6.78;4.97;;;;;;;19.21;45.16;101599.56;5034515;28;20045;-52
2023/01/12 02:58:55;;;;;;;7.40;5.25;;;;;;;19.20;45.20;101596.03;5034815;28;20045;-54
2023/01/12 03:01:26;;;;;;;7.68;5.68;;;;;;;19.21;45.16;101588.84;5034974;28;20065;-54
2023/01/12 03:03:58;;;;;;;6.22;5.15;;;;;;;19.20;45.28;101579.94;5034492;28;20045;-52
2023/01/12 03:06:50;;;;;;;7.18;5.25;;;;;;;19.20;45.13;101587.97;5034410;28;20053;-52
2023/01/12 03:09:18;;;;;;;7.88;5.38;;;;;;;19.20;45.19;101587.09;5042812;28;20068;-53
2023/01/12 03:11:49;;;;;;;7.68;5.13;;;;;;;19.20;45.27;101596.03;5034400;28;20096;-54
2023/01/12 03:14:17;;;;;;;7.05;5.38;;;;;;;19.18;45.17;101584.53;5034286;28;20056;-54
2023/01/12 03:16:44;;;;;;;6.50;5.40;;;;;;;19.19;45.29;101575.50;5033339;28;20052;-51
2023/01/12 03:19:26;;;;;;;7.10;4.75;;;;;;;19.18;45.32;101576.47;5034046;28;20388;-50
2023/01/12 03:21:59;;;;;;;5.78;4.53;;;;;;;19.19;45.43;101574.66;5033634;28;20046;-48
2023/01/12 03:24:30;;;;;;;6.35;5.18;;;;;;;19.18;45.25;101584.53;5034129;28;20049;-49
2023/01/12 03:27:04;;;;;;;6.50;4.53;;;;;;;19.20;45.32;101587.09;5034115;28;20057;-48
2023/01/12 03:29:49;;;;;;;7.18;5.20;;;;;;;19.20;45.42;101598.72;5034281;28;20498;-48
2023/01/12 03:32:18;;;;;;;7.47;4.88;;;;;;;19.18;45.46;101608.69;5034032;28;20384;-50
2023/01/12 03:34:45;;;;;;;7.32;4.93;;;;;;;19.18;45.56;101608.69;5033927;28;20041;-50
2023/01/12 03:37:24;;;;;;;6.15;5.20;;;;;;;19.18;45.49;101610.53;5033741;28;20045;-48
2023/01/12 03:40:17;;;;;;;8.60;5.43;;;;;;;19.19;45.82;101617.59;5034100;28;20062;-52
2023/01/12 03:42:53;;;;;;;6.00;4.80;;;;;;;19.18;45.67;101622.13;5033592;28;20072;-48
2023/01/12 03:45:40;;;;;;;6.40;5.07;;;;;;;19.18;45.66;101635.53;5033875;28;20049;-48
2023/01/12 03:48:18;;;;;;;7.43;4.55;;;;;;;19.18;45.67;101638.22;5033894;28;20054;-51
2023/01/12 03:50:59;;;;;;;9.07;5.03;;;;;;;19.18;45.81;101626.63;5033782;28;20049;-51
2023/01/12 03:53:28;;;;;;;7.10;4.95;;;;;;;19.18;45.85;101626.63;5033860;28;20053;-50
2023/01/12 03:56:01;;;;;;;7.43;5.35;;;;;;;19.17;45.71;101617.72;5033666;28;20049;-52
2023/01/12 03:58:30;;;;;;;6.15;4.45;;;;;;;19.18;45.78;101634.69;5034052;28;20037;-48
2023/01/12 04:00:57;;;;;;;6.75;4.88;;;;;;;19.18;45.75;101630.16;5033704;28;20399;-47
2023/01/12 04:03:24;;;;;;;5.55;4.63;;;;;;;19.17;45.66;101623.09;5033621;28;20050;-48
2023/01/12 04:05:52;;;;;;;7.72;5.18;;;;;;;19.18;45.63;101627.50;5033534;28;20487;-49
2023/01/12 04:08:19;;;;;;;7.20;4.93;;;;;;;19.18;45.60;101632.00;5033734;28;20052;-54
2023/01/12 04:10:46;;;;;;;9.02;4.38;;;;;;;19.18;45.64;101637.38;5033520;28;20156;-53
2023/01/12 04:13:14;;;;;;;5.53;4.65;;;;;;;19.17;45.54;101641.88;5033513;28;20052;-53
2023/01/12 04:15:41;;;;;;;5.45;4.18;;;;;;;19.17;45.67;101633.84;5033606;28;20053;-55
2023/01/12 04:18:09;;;;;;;6.05;4.80;;;;;;;19.16;45.56;101618.69;5033821;28;20419;-50
2023/01/12 04:20:37;;;;;;;6.18;4.55;;;;;;;19.16;45.54;101620.50;5032952;28;20426;-48
2023/01/12 04:23:06;;;;;;;7.97;5.07;;;;;;;19.18;45.52;101615.91;5033124;28;20046;-50
2023/01/12 04:25:33;;;;;;;6.55;4.78;;;;;;;19.16;45.51;101580.25;5032959;28;20041;-48
2023/01/12 04:28:02;;;;;;;6.20;4.78;;;;;;;19.16;45.51;101578.44;5036544;28;20518;-52
2023/01/12 04:30:31;;;;;;;6.20;4.35;;;;;;;19.16;45.36;101597.22;5037137;28;20049;-54
2023/01/12 04:33:04;;;;;;;6.95;4.68;;;;;;;19.17;45.44;101614.19;5037298;28;20467;-54
2023/01/12 04:35:31;;;;;;;6.40;4.15;;;;;;;19.16;45.45;101624.06;5036016;28;20364;-53
2023/01/12 04:38:04;;;;;;;5.78;4.30;;;;;;;19.15;45.34;101627.69;5037311;28;20119;-48
2023/01/12 04:40:32;;;;;;;;;;;;;;;19.15;45.57;101625.00;5037531;28;20487;-49
2023/01/12 04:43:05;;;;;;;6.30;3.95;;;;;;;19.16;45.52;101623.19;5036867;28;20142;-50
2023/01/12 04:45:40;;;;;;;5.63;4.22;;;;;;;19.15;45.52;101622.34;5037002;28;20542;-49
2023/01/12 04:48:10;;;;;;;6.47;4.43;;;;;;;19.15;45.53;101633.06;5037252;28;20049;-55
2023/01/12 04:50:38;;;;;;;6.05;4.93;;;;;;;19.15;45.50;101638.44;5036746;28;20057;-51
2023/01/12 04:53:08;;;;;;;6.20;5.05;;;;;;;19.14;45.61;101652.84;5036942;28;20046;-51
2023/01/12 04:55:37;;;;;;;6.97;4.30;;;;;;;19.15;45.58;101653.69;5036661;28;20042;-53
2023/01/12 04:58:04;;;;;;;8.18;4.93;;;;;;;19.15;45.68;101670.66;5036918;28;20399;-50
2023/01/12 05:00:32;;;;;;;8.45;5.53;;;;;;;19.14;45.70;101677.00;5036600;28;20388;-50
2023/01/12 05:03:01;;;;;;;5.85;4.32;;;;;;;19.15;45.64;101686.75;5036532;28;20045;-51
2023/01/12 05:05:30;;;;;;;6.68;4.43;;;;;;;19.15;45.59;101694.81;5036411;28;20057;-52
2023/01/12 05:10:53;;;;;;;5.22;4.40;;;;;;;19.14;45.67;101708.34;5036430;28;20049;-48
2023/01/12 05:13:22;;;;;;;6.68;4.88;;;;;;;19.14;45.67;101711.88;5036184;28;20391;-48
2023/01/12 05:15:50;;;;;;;6.00;4.75;;;;;;;19.15;45.71;101723.47;5036107;28;20061;-48
2023/01/12 05:18:18;;;;;;;6.60;4.63;;;;;;;19.13;45.66;101731.66;5036826;28;20049;-52
2023/01/12 05:20:45;;;;;;;6.00;4.53;;;;;;;19.14;45.85;101746.78;5036389;28;20049;-53
2023/01/12 05:23:12;;;;;;;5.88;4.55;;;;;;;19.14;45.72;101748.59;5036306;28;20506;-51
2023/01/12 05:25:40;;;;;;;6.25;4.22;;;;;;;19.13;45.69;101745.06;5036290;28;20041;-53
2023/01/12 05:28:07;;;;;;;5.55;4.15;;;;;;;19.13;45.60;101745.06;5036427;28;20045;-55
2023/01/12 05:30:34;;;;;;;5.38;3.88;;;;;;;19.12;45.56;101732.63;5035002;28;20050;-51
2023/01/12 05:33:01;;;;;;;6.20;4.55;;;;;;;19.12;45.51;101732.63;5036045;28;20038;-51
2023/01/12 05:35:29;;;;;;;6.88;4.78;;;;;;;19.12;45.48;101723.69;5036125;28;20479;-52
2023/01/12 05:37:56;;;;;;;6.70;4.32;;;;;;;19.12;45.69;101708.47;5036068;28;20049;-51
2023/01/12 05:40:24;;;;;;;5.53;4.80;;;;;;;19.12;45.52;101707.59;5035357;28;20042;-49
2023/01/12 05:45:37;;;;;;;4.78;4.03;;;;;;;19.10;45.43;101705.00;5035943;28;20057;-49
2023/01/12 05:48:04;;;;;;;6.32;4.82;;;;;;;19.11;45.53;101708.56;5036154;28;20057;-49
2023/01/12 05:50:32;;;;;;;5.22;4.20;;;;;;;19.11;45.41;101706.72;5035617;28;20044;-49
2023/01/12 05:53:09;;;;;;;7.13;4.82;;;;;;;19.11;45.42;101717.47;5035724;28;20046;-49
2023/01/12 05:55:37;;;;;;;5.68;4.25;;;;;;;19.11;45.41;101719.28;5035467;28;20050;-49
2023/01/12 05:58:04;;;;;;;7.30;4.68;;;;;;;19.11;45.46;101711.25;5035485;28;20052;-55
2023/01/12 06:00:31;;;;;;;6.43;4.40;;;;;;;19.11;45.35;101721.97;5035878;28;20049;-55
2023/01/12 06:03:01;;;;;;;5.97;4.35;;;;;;;19.10;45.41;101726.50;5035164;28;20050;-52
2023/01/12 06:05:28;;;;;;;5.32;4.47;;;;;;;19.10;45.29;101726.50;5035435;28;20064;-53
2023/01/12 06:07:55;;;;;;;6.18;4.30;;;;;;;19.10;45.43;101721.13;5035536;28;20048;-54
2023/01/12 06:10:23;;;;;;;5.43;4.32;;;;;;;19.10;45.48;101720.25;5035526;28;20065;-52
2023/01/12 06:15:36;;;;;;;6.50;4.30;;;;;;;19.09;45.22;101714.03;5035479;28;20463;-55
2023/01/12 06:18:04;;;;;;;6.40;3.90;;;;;;;19.10;45.49;101714.91;5035679;28;20053;-48
2023/01/12 06:20:31;;;;;;;5.03;4.15;;;;;;;19.11;45.22;101711.25;5035178;28;20054;-48
2023/01/12 06:23:01;;;;;;;7.57;4.38;;;;;;;19.09;45.39;101714.03;5035109;28;20502;-50
2023/01/12 06:25:28;;;;;;;5.28;4.07;;;;;;;19.09;45.51;101719.41;5035102;28;20046;-47
2023/01/12 06:27:56;;;;;;;7.75;4.63;;;;;;;19.09;45.41;101730.16;5035297;28;20045;-54
2023/01/12 06:30:23;;;;;;;7.68;4.28;;;;;;;19.10;45.41;101731.00;5034929;28;20057;-48
2023/01/12 06:32:51;;;;;;;4.57;3.90;;;;;;;19.09;45.42;101735.50;5034633;28;20053;-48
2023/01/12 06:35:18;;;;;;;5.78;4.60;;;;;;;19.09;45.33;101737.34;5034670;28;20057;-49
2023/01/12 06:37:46;;;;;;;5.88;4.20;;;;;;;19.09;45.42;101748.94;5035000;28;20041;-53
2023/01/12 06:40:14;;;;;;;5.07;4.40;;;;;;;19.10;45.33;101755.16;5035520;28;20076;-51
2023/01/12 06:42:41;;;;;;;7.28;4.13;;;;;;;19.09;45.40;101767.72;5034622;28;20124;-53
2023/01/12 06:45:09;;;;;;;6.40;4.68;;;;;;;19.08;45.70;101763.31;5034640;28;20057;-52
2023/01/12 06:48:03;;;;;;;5.18;4.32;;;;;;;19.07;45.53;101758.91;5034779;28;20049;-55
2023/01/12 06:50:31;;;;;;;5.35;3.78;;;;;;;19.07;45.46;101761.59;5035045;28;20057;-54
2023/01/12 06:53:00;;;;;;;4.78;4.03;;;;;;;19.08;45.64;101766.00;5034502;28;20045;-50
2023/01/12 06:55:27;;;;;;;6.63;4.55;;;;;;;19.08;45.54;101762.44;5034447;28;20045;-53
2023/01/12 06:57:55;;;;;;;6.00;4.35;;;;;;;19.07;45.57;101775.00;5034707;28;20053;-50
2023/01/12 07:00:22;;;;;;;5.22;4.18;;;;;;;19.07;45.51;101780.38;5034302;28;20045;-52
2023/01/12 07:02:50;;;;;;;6.32;4.22;;;;;;;19.07;45.29;101793.78;5034325;28;20510;-50
2023/01/12 07:05:18;;;;;;;6.72;4.40;;;;;;;19.08;45.52;101791.97;5034296;28;20037;-52
2023/01/12 07:07:45;;;;;;;5.10;4.05;;;;;;;19.06;45.63;101796.59;5034423;28;20041;-55
2023/01/12 07:10:13;;;;;;;5.45;3.65;;;;;;;19.05;45.47;101806.47;5034940;28;20072;-48
2023/01/12 07:12:40;;;;;;;5.90;4.53;;;;;;;19.06;45.54;101815.38;5034254;28;20045;-48
2023/01/12 07:15:08;;;;;;;5.88;4.32;;;;;;;19.06;45.47;101821.59;5034087;28;20494;-47
2023/01/12 07:17:35;;;;;;;5.80;4.10;;;;;;;19.06;45.52;101816.25;5034202;28;20046;-51
2023/01/12 07:20:03;;;;;;;7.18;4.63;;;;;;;19.06;45.46;101813.56;5034061;28;20427;-52
2023/01/12 07:22:30;;;;;;;6.13;5.00;;;;;;;19.07;45.45;101822.47;5034024;28;20056;-50
2023/01/12 07:24:58;;;;;;;6.80;4.35;;;;;;;19.07;45.30;101817.94;5033879;28;20041;-49
2023/01/12 07:27:25;;;;;;;5.78;4.32;;;;;;;19.07;45.46;101817.09;5034010;28;20491;-48
2023/01/12 07:29:52;;;;;;;6.47;4.15;;;;;;;19.07;45.47;101822.47;5033933;28;20057;-50
2023/01/12 07:32:23;;;;;;;4.68;4.00;;;;;;;19.06;45.51;101832.34;5032794;28;20046;-49
2023/01/12 07:34:50;;;;;;;6.72;4.30;;;;;;;19.05;45.37;101833.31;5033614;28;20045;-48
2023/01/12 07:37:18;;;;;;;6.32;4.50;;;;;;;19.05;45.37;101844.06;5033422;28;20072;-48
2023/01/12 07:39:45;;;;;;;4.65;3.92;;;;;;;19.05;45.54;101843.19;5033988;28;20056;-50
2023/01/12 07:42:22;;;;;;;5.32;4.00;;;;;;;19.04;45.36;101842.34;5033488;28;20053;-49
2023/01/12 07:44:51;;;;;;;6.68;4.30;;;;;;;19.05;45.47;101849.41;5033548;28;20034;-49
2023/01/12 07:47:18;;;;;;;5.88;4.07;;;;;;;19.05;45.51;101844.06;5033705;28;20506;-49
2023/01/12 07:49:45;;;;;;;7.30;4.57;;;;;;;19.05;45.41;101848.56;5033952;28;20438;-51
2023/01/12 07:52:13;;;;;;;5.78;4.15;;;;;;;19.06;45.42;101839.53;5033568;28;20484;-48
2023/01/12 07:54:40;;;;;;;4.88;4.10;;;;;;;19.05;45.48;101845.88;5033491;28;20041;-52
2023/01/12 07:57:09;;;;;;;6.70;4.47;;;;;;;19.07;45.49;101849.31;5033619;28;20503;-51
2023/01/12 07:59:37;;;;;;;5.70;3.70;;;;;;;19.05;45.55;101846.72;5033641;28;20475;-48
2023/01/12 08:02:05;;;;;;;5.63;4.30;;;;;;;19.05;45.63;101848.56;5035805;28;20468;-49
2023/01/12 08:04:32;;;;;;;5.55;4.18;;;;;;;19.05;45.63;101846.72;5040110;28;20049;-50
2023/01/12 08:07:00;;;;;;;5.90;3.90;;;;;;;19.05;45.65;101857.47;5040128;28;20045;-48
2023/01/12 08:09:27;;;;;;;7.15;4.15;;;;;;;19.06;45.67;101871.75;5040306;28;20049;-52
2023/01/12 08:11:54;;;;;;;6.22;4.43;;;;;;;19.05;45.64;101878.09;5040032;28;20104;-54
2023/01/12 08:14:27;;;;;;;10.05;4.28;;;;;;;19.05;45.71;101884.31;5039917;28;20042;-50
2023/01/12 08:17:00;;;;;;;6.40;4.18;;;;;;;19.05;45.62;101900.41;5040109;28;20045;-51
2023/01/12 08:19:37;;;;;;;6.75;4.55;;;;;;;19.06;45.61;101909.31;5040296;28;20418;-52
2023/01/12 08:22:11;;;;;;;7.05;4.70;;;;;;;19.07;45.95;101909.19;5039284;28;20045;-55
2023/01/12 08:24:43;;;;;;;6.13;4.60;;;;;;;19.07;46.13;101909.19;5058534;28;20041;-55
2023/01/12 08:27:11;;;;;;;9.57;4.53;;;;;;;19.09;46.41;101903.75;5059595;28;20049;-55
2023/01/12 08:29:46;;;;;;;9.93;6.20;;;;;;;19.07;43.28;101908.34;5059794;28;20045;-48
2023/01/12 08:32:17;;;;;;;9.02;5.55;;;;;;;19.03;44.92;101905.00;5059487;28;20490;-48
2023/01/12 08:34:51;;;;;;;7.00;4.55;;;;;;;19.06;45.72;101906.63;5059343;28;20041;-48
2023/01/12 08:37:20;;;;;;;;;;;;;;;19.07;45.83;101909.19;5059710;28;20060;-48
2023/01/12 08:39:48;;;;;;;9.02;5.28;;;;;;;19.08;45.21;101913.63;5059136;28;20378;-48
2023/01/12 08:42:17;;;;;;;8.68;6.28;;;;;;;19.07;43.40;101919.94;5058011;28;20056;-50
2023/01/12 08:44:44;;;;;;;10.63;6.50;;;;;;;19.05;43.02;101921.88;5058813;28;20049;-48
2023/01/12 08:47:21;;;;;;;9.23;6.47;;;;;;;19.03;43.03;101921.97;5058941;28;20072;-48
2023/01/12 08:49:49;;;;;;;7.45;6.55;;;;;;;19.03;42.93;101919.28;5059878;28;20057;-47
2023/01/12 08:52:16;;;;;;;8.18;6.10;;;;;;;19.05;43.39;101919.19;5059317;28;20056;-48
2023/01/12 08:54:46;;;;;;;8.27;6.80;;;;;;;19.03;41.94;101910.38;5059094;28;20059;-50
2023/01/12 08:57:15;;;;;;;8.32;7.35;;;;;;;19.02;41.61;101911.34;5059459;28;20056;-48
2023/01/12 08:59:42;;;;;;;10.50;8.07;;;;;;;18.99;41.28;101930.31;5059638;28;20514;-50
2023/01/12 09:02:11;;;;;;;13.45;8.15;;;;;;;18.99;41.08;101927.66;5059337;28;20048;-53
2023/01/12 09:04:39;;;;;;;12.77;8.20;;;;;;;18.97;40.94;101925.06;5059065;28;20037;-53
2023/01/12 09:07:08;;;;;;;9.80;7.97;;;;;;;18.95;40.89;101928.81;5057779;28;20057;-51
2023/01/12 09:09:36;;;;;;;9.95;8.10;;;;;;;18.93;40.77;101920.88;5059159;28;20060;-51
2023/01/12 09:12:04;;;;;;;12.15;7.72;;;;;;;18.92;40.72;101919.16;5059238;28;20057;-51
2023/01/12 09:14:37;;;;;;;14.73;8.40;;;;;;;18.91;40.56;101913.88;5055529;28;20459;-55
2023/01/12 09:17:05;;;;;;;9.15;7.47;;;;;;;18.89;40.38;101927.41;5055772;28;20049;-50
2023/01/12 09:19:33;;;;;;;10.90;8.00;;;;;;;18.89;40.32;101939.97;5055986;28;20045;-49
2023/01/12 09:22:00;;;;;;;11.63;8.20;;;;;;;18.87;40.30;101950.78;5056260;28;20049;-48
2023/01/12 09:24:27;;;;;;;14.65;8.07;;;;;;;18.86;40.51;101945.53;5055948;28;20120;-48
2023/01/12 09:26:55;;;;;;;9.65;7.32;;;;;;;18.86;41.16;101945.53;5055897;28;20056;-48
2023/01/12 09:29:22;;;;;;;9.15;6.50;;;;;;;18.88;41.83;101948.97;5055687;28;20045;-52
2023/01/12 09:31:50;;;;;;;8.90;6.25;;;;;;;18.91;41.93;101955.00;5055825;28;20099;-54
2023/01/12 09:34:17;;;;;;;11.18;6.65;;;;;;;18.93;41.97;101969.19;5055872;28;20056;-53
2023/01/12 09:36:45;;;;;;;8.63;6.28;;;;;;;18.96;41.94;101973.50;5055648;28;20052;-53
2023/01/12 09:39:15;;;;;;;8.65;5.57;;;;;;;18.97;42.08;101970.69;5055816;28;20052;-54
2023/01/12 09:48:01;;;;;;;7.80;5.28;;;;;;;19.02;41.64;101970.38;5055644;28;20475;-47
2023/01/12 09:50:46;;;;;;;7.95;5.53;;;;;;;19.04;42.09;101976.53;5055502;28;20041;-47
2023/01/12 09:53:18;;;;;;;8.27;5.80;;;;;;;19.05;41.61;101969.34;5055498;28;20041;-48
2023/01/12 09:56:04;;;;;;;8.77;6.18;;;;;;;18.96;40.35;101968.13;5055297;28;20068;-47
2023/01/12 09:58:52;;;;;;;10.05;6.47;;;;;;;18.87;40.60;101966.03;5055191;28;20399;-48
2023/01/12 10:01:20;;;;;;;10.38;6.57;;;;;;;18.76;40.76;101964.06;5055008;28;20056;-47
2023/01/12 10:03:58;;;;;;;10.20;6.60;;;;;;;18.70;40.96;101964.47;5054760;28;20049;-50
2023/01/12 10:06:26;;;;;;;11.88;7.25;;;;;;;18.63;40.76;101963.09;5055085;28;20116;-47
2023/01/12 10:08:56;;;;;;;9.23;6.93;;;;;;;18.56;40.82;101961.78;5055382;28;20048;-59
2023/01/12 10:11:51;;;;;;;9.75;7.32;;;;;;;18.50;40.66;101961.22;5055108;28;20052;-59
2023/01/12 10:14:27;;;;;;;12.23;8.27;;;;;;;18.45;41.27;101959.78;5054993;28;20096;-59
2023/01/12 10:17:06;;;;;;;9.98;7.45;;;;;;;18.42;40.78;101965.34;5054856;28;20502;-58
2023/01/12 10:19:39;;;;;;;11.07;7.50;;;;;;;18.40;40.91;101964.59;5055030;28;20049;-59
2023/01/12 10:22:12;;;;;;;;;;;;;;;18.39;41.01;101957.50;5055305;28;20041;-55
2023/01/12 10:24:41;;;;;;;7.32;5.03;;;;;;;18.45;43.15;101959.78;5054405;28;19984;-56
2023/01/12 10:27:12;;;;;;;6.53;4.93;;;;;;;18.52;43.19;101963.81;5054838;28;20041;-56
2023/01/12 10:29:40;;;;;;;5.68;5.03;;;;;;;18.59;43.62;101967.78;5054965;28;20053;-55
2023/01/12 10:32:11;;;;;;;9.82;4.90;;;;;;;18.67;43.50;101978.03;5054722;28;20053;-54
2023/01/12 10:34:50;;;;;;;7.95;4.63;;;;;;;18.73;43.59;101975.84;5053690;28;20052;-55
2023/01/12 10:37:17;;;;;;;7.15;4.25;;;;;;;18.77;43.61;101976.50;5054388;28;20052;-56
2023/01/12 10:39:44;;;;;;;7.05;4.43;;;;;;;18.81;43.67;101966.44;5054645;28;20410;-50
2023/01/12 10:45:28;;;;;;;6.60;4.35;;;;;;;18.87;43.60;101933.84;5053243;28;20056;-48
2023/01/12 10:47:56;;;;;;;8.30;4.07;;;;;;;18.89;43.51;101921.19;5054387;28;20387;-55
2023/01/12 10:50:28;;;;;;;7.32;4.25;;;;;;;18.90;43.66;101907.66;5052985;28;20049;-55
2023/01/12 10:53:13;;;;;;;7.63;3.67;;;;;;;18.92;43.69;101907.53;5053967;28;20467;-55
2023/01/12 10:55:41;;;;;;;6.15;4.03;;;;;;;18.93;43.64;101909.28;5053407;28;20037;-55
2023/01/12 10:58:35;;;;;;;8.43;4.30;;;;;;;18.94;43.74;101905.63;5053952;28;20060;-48
2023/01/12 11:01:04;;;;;;;;;;;;;;;18.95;43.69;101902.84;5054150;28;20072;-48
2023/01/12 11:03:36;;;;;;;5.85;3.80;;;;;;;18.97;43.95;101902.75;5054059;28;19928;-49
2023/01/12 11:06:23;;;;;;;5.20;3.53;;;;;;;18.96;43.82;101901.03;5051876;28;20487;-48
2023/01/12 11:08:50;;;;;;;6.03;3.70;;;;;;;18.97;43.89;101905.44;5053696;28;20056;-48
2023/01/12 11:11:27;;;;;;;7.20;3.88;;;;;;;18.97;43.92;101903.59;5053445;28;20132;-50
2023/01/12 11:13:57;;;;;;;5.82;3.80;;;;;;;18.98;43.89;101893.72;5052877;28;20041;-48
2023/01/12 11:16:31;;;;;;;5.65;3.78;;;;;;;18.98;44.09;101889.22;5053443;28;20041;-48
2023/01/12 11:19:22;;;;;;;6.63;3.75;;;;;;;18.98;44.02;101880.31;5053877;28;20061;-55
2023/01/12 11:22:24;;;;;;;4.65;3.28;;;;;;;18.99;44.10;101857.88;5053333;28;20506;-54
2023/01/12 11:25:12;;;;;;;7.35;3.75;;;;;;;18.98;44.02;101859.69;5052992;28;20065;-51
2023/01/12 11:27:46;;;;;;;5.45;3.80;;;;;;;18.99;44.05;101861.41;5053383;28;20049;-51
2023/01/12 11:30:40;;;;;;;7.32;3.53;;;;;;;18.99;43.94;101866.78;5053481;28;20053;-47
2023/01/12 11:33:10;;;;;;;6.15;3.63;;;;;;;19.00;44.17;101859.63;5052766;28;20446;-49
2023/01/12 11:35:40;;;;;;;5.88;3.67;;;;;;;19.01;44.12;101861.31;5053106;28;20387;-48
2023/01/12 11:38:16;;;;;;;5.55;3.88;;;;;;;19.01;44.10;101847.91;5052674;28;20049;-49
2023/01/12 11:40:44;;;;;;;5.65;3.47;;;;;;;19.02;44.15;101841.56;5053118;28;20399;-50
2023/01/12 11:43:49;;;;;;;6.07;2.97;;;;;;;19.01;44.18;101832.66;5052810;28;20052;-48
2023/01/12 11:46:43;;;;;;;4.57;3.20;;;;;;;19.01;44.30;101829.13;5052937;28;20049;-49
2023/01/12 11:49:28;;;;;;;6.07;3.33;;;;;;;19.02;44.11;101830.84;5052823;28;20060;-54
2023/01/12 11:51:58;;;;;;;4.43;3.30;;;;;;;19.01;44.17;101807.66;5053046;28;20391;-54
2023/01/12 11:54:27;;;;;;;5.40;3.53;;;;;;;19.01;44.24;101805.81;5052960;28;20045;-54
2023/01/12 11:57:19;;;;;;;5.13;3.10;;;;;;;19.03;44.41;101805.72;5052815;28;20482;-55
2023/01/12 12:00:01;;;;;;;7.00;3.78;;;;;;;19.02;44.23;101804.00;5053190;28;20045;-52
2023/01/12 12:03:01;;;;;;;7.20;3.47;;;;;;;19.03;44.30;101794.97;5059576;28;20052;-49
2023/01/12 12:05:59;;;;;;;4.18;2.88;;;;;;;19.03;44.32;101798.50;5052688;28;20053;-48
2023/01/12 12:08:47;;;;;;;5.38;3.65;;;;;;;19.02;44.31;101802.16;5053419;28;20041;-56
2023/01/12 12:11:49;;;;;;;4.43;3.17;;;;;;;19.03;44.33;101797.66;5052905;28;20059;-56
2023/01/12 12:15:00;;;;;;;4.88;3.10;;;;;;;19.02;44.37;101788.75;5051727;28;20064;-57
2023/01/12 12:17:40;;;;;;;4.97;3.05;;;;;;;19.03;44.25;101798.50;5030559;28;20076;-52